Time,TemperatureF,DewpointF,PressureIn,WindDirection,WindDirectionDegrees,WindSpeedMPH,WindSpeedGustMPH,Humidity,HourlyPrecipIn,Conditions,Clouds,dailyrainin,SoftwareType,DateUTC
2013-08-14 00:11:00,59.0,50.0,29.91,NW,310,0.0,-999.0,72,-99.99,,,-99.99,,2013-08-14 07:11:00,
2013-08-14 00:21:00,58.0,49.0,29.91,NW,310,0.0,-999.0,73,-99.99,,,-99.99,,2013-08-14 07:21:00,
2013-08-14 00:52:00,57.0,48.0,29.91,NW,310,0.0,-999.0,72,-99.99,,,-99.99,,2013-08-14 07:52:00,
2013-08-14 01:11:00,56.0,47.0,29.91,NW,310,0.0,-999.0,73,-99.99,,,-99.99,,2013-08-14 08:11:00,
2013-08-14 01:21:00,56.0,49.0,29.91,NW,310,0.0,-999.0,76,-99.99,,,-99.99,,2013-08-14 08:21:00,
2013-08-14 01:52:00,54.0,48.0,29.91,NW,310,0.0,-999.0,80,-99.99,,,-99.99,,2013-08-14 08:52:00,
2013-08-14 02:11:00,53.0,48.0,29.91,NW,310,0.0,-999.0,82,-99.99,,,-99.99,,2013-08-14 09:11:00,
2013-08-14 02:21:00,53.0,48.0,29.91,NW,310,0.0,-999.0,82,-99.99,,,-99.99,,2013-08-14 09:21:00,
2013-08-14 02:43:00,53.0,48.0,29.90,NW,310,0.0,-999.0,83,-99.99,,,-99.99,,2013-08-14 09:43:00,
2013-08-14 02:52:00,53.0,48.0,29.90,NW,310,0.0,-999.0,83,-99.99,,,-99.99,,2013-08-14 09:52:00,
2013-08-14 03:11:00,52.0,47.0,29.91,NW,310,0.0,-999.0,83,-99.99,,,-99.99,,2013-08-14 10:11:00,
2013-08-14 03:22:00,52.0,47.0,29.91,NW,310,0.0,-999.0,83,-99.99,,,-99.99,,2013-08-14 10:22:00,
2013-08-14 03:52:00,52.0,47.0,29.92,NW,310,0.0,-999.0,83,-99.99,,,-99.99,,2013-08-14 10:52:00,
2013-08-14 04:11:00,52.0,47.0,29.92,NW,310,0.0,-999.0,83,-99.99,,,-99.99,,2013-08-14 11:11:00,
2013-08-14 04:21:00,51.0,46.0,29.92,NW,310,0.0,-999.0,83,-99.99,,,-99.99,,2013-08-14 11:21:00,
2013-08-14 04:51:00,50.0,45.0,29.92,NW,310,0.0,-999.0,82,-99.99,,,-99.99,,2013-08-14 11:51:00,
2013-08-14 05:11:00,50.0,45.0,29.92,NW,310,0.0,-999.0,83,-99.99,,,-99.99,,2013-08-14 12:11:00,
2013-08-14 05:21:00,50.0,46.0,29.91,NW,310,0.0,-999.0,85,-99.99,,,-99.99,,2013-08-14 12:21:00,
2013-08-14 05:42:00,50.0,46.0,29.91,NW,310,0.0,-999.0,85,-99.99,,,-99.99,,2013-08-14 12:42:00,
2013-08-14 05:52:00,49.0,45.0,29.91,NW,310,0.0,-999.0,87,-99.99,,,-99.99,,2013-08-14 12:52:00,
2013-08-14 06:11:00,48.0,44.0,29.92,NW,310,0.0,-999.0,86,-99.99,,,-99.99,,2013-08-14 13:11:00,
2013-08-14 06:21:00,48.0,44.0,29.92,NW,310,0.0,-999.0,86,-99.99,,,-99.99,,2013-08-14 13:21:00,
2013-08-14 06:52:00,50.0,46.0,29.92,NW,310,0.0,-999.0,87,-99.99,,,-99.99,,2013-08-14 13:52:00,
2013-08-14 07:11:00,50.0,46.0,29.93,NW,310,0.0,-999.0,86,-99.99,,,-99.99,,2013-08-14 14:11:00,
2013-08-14 07:21:00,50.0,45.0,29.93,NW,310,0.0,-999.0,83,-99.99,,,-99.99,,2013-08-14 14:21:00,
2013-08-14 07:52:00,54.0,49.0,29.93,NW,310,0.0,-999.0,82,-99.99,,,-99.99,,2013-08-14 14:52:00,
2013-08-14 08:11:00,57.0,50.0,29.93,NW,310,0.0,-999.0,77,-99.99,,,-99.99,,2013-08-14 15:11:00,
2013-08-14 08:22:00,60.0,51.0,29.93,NW,310,0.0,-999.0,72,-99.99,,,-99.99,,2013-08-14 15:22:00,
2013-08-14 08:56:00,65.0,50.0,29.93,NW,310,0.0,-999.0,59,-99.99,,,-99.99,,2013-08-14 15:56:00,
2013-08-14 11:27:00,83.0,50.0,29.89,NNE,28,0.0,-999.0,32,-99.99,,,-99.99,,2013-08-14 18:27:00,
2013-08-14 11:54:00,85.0,50.0,29.88,WNW,300,2.0,-999.0,30,-99.99,,,-99.99,,2013-08-14 18:54:00,
2013-08-14 12:23:00,89.0,47.0,29.87,NE,51,0.0,-999.0,24,-99.99,,,-99.99,,2013-08-14 19:23:00,
2013-08-14 12:53:00,90.0,47.0,29.86,ENE,61,2.0,-999.0,23,-99.99,,,-99.99,,2013-08-14 19:53:00,
2013-08-14 13:11:00,90.0,45.0,29.85,ESE,109,3.0,-999.0,21,-99.99,,,-99.99,,2013-08-14 20:11:00,
2013-08-14 13:52:00,92.0,45.0,29.84,ENE,67,1.0,-999.0,20,-99.99,,,-99.99,,2013-08-14 20:52:00,
2013-08-14 14:13:00,93.0,46.0,29.83,ENE,78,2.0,-999.0,20,-99.99,,,-99.99,,2013-08-14 21:13:00,
2013-08-14 14:23:00,93.0,42.0,29.83,WNW,301,1.0,-999.0,17,-99.99,,,-99.99,,2013-08-14 21:23:00,
2013-08-14 14:55:00,93.0,42.0,29.82,WNW,294,1.0,-999.0,17,-99.99,,,-99.99,,2013-08-14 21:55:00,
2013-08-14 15:12:00,94.0,43.0,29.81,WNW,295,2.0,-999.0,17,-99.99,,,-99.99,,2013-08-14 22:12:00,
2013-08-14 15:23:00,93.0,42.0,29.80,WNW,291,4.0,-999.0,17,-99.99,,,-99.99,,2013-08-14 22:23:00,
2013-08-14 15:54:00,96.0,39.0,29.79,South,186,2.0,-999.0,14,-99.99,,,-99.99,,2013-08-14 22:54:00,
2013-08-14 16:13:00,96.0,37.0,29.79,South,178,3.0,-999.0,13,-99.99,,,-99.99,,2013-08-14 23:13:00,
2013-08-14 16:46:00,95.0,42.0,29.78,East,88,2.0,-999.0,16,-99.99,,,-99.99,,2013-08-14 23:46:00,
2013-08-14 16:56:00,95.0,43.0,29.77,ENE,70,2.0,-999.0,17,-99.99,,,-99.99,,2013-08-14 23:56:00,
2013-08-14 17:12:00,93.0,42.0,29.77,East,85,1.0,-999.0,17,-99.99,,,-99.99,,2013-08-15 00:12:00,
2013-08-14 17:22:00,94.0,41.0,29.77,NE,53,1.0,-999.0,16,-99.99,,,-99.99,,2013-08-15 00:22:00,
2013-08-14 17:43:00,93.0,43.0,29.76,NNE,24,2.0,-999.0,18,-99.99,,,-99.99,,2013-08-15 00:43:00,
2013-08-14 17:52:00,92.0,45.0,29.76,NW,315,1.0,-999.0,20,-99.99,,,-99.99,,2013-08-15 00:52:00,
2013-08-14 18:16:00,91.0,46.0,29.76,North,360,1.0,-999.0,21,-99.99,,,-99.99,,2013-08-15 01:16:00,
2013-08-14 18:22:00,90.0,46.0,29.75,WNW,295,1.0,-999.0,22,-99.99,,,-99.99,,2013-08-15 01:22:00,
2013-08-14 18:52:00,89.0,47.0,29.75,East,79,0.0,-999.0,24,-99.99,,,-99.99,,2013-08-15 01:52:00,
2013-08-14 19:11:00,88.0,47.0,29.75,NE,49,1.0,-999.0,24,-99.99,,,-99.99,,2013-08-15 02:11:00,
2013-08-14 19:21:00,86.0,46.0,29.75,NE,51,0.0,-999.0,25,-99.99,,,-99.99,,2013-08-15 02:21:00,
2013-08-14 20:22:00,82.0,48.0,29.75,NE,53,0.0,-999.0,31,-99.99,,,-99.99,,2013-08-15 03:22:00,
2013-08-14 20:53:00,78.0,50.0,29.75,NE,53,0.0,-999.0,38,-99.99,,,-99.99,,2013-08-15 03:53:00,
2013-08-14 21:12:00,76.0,49.0,29.76,NE,53,0.0,-999.0,39,-99.99,,,-99.99,,2013-08-15 04:12:00,
2013-08-14 21:22:00,75.0,50.0,29.77,NE,53,0.0,-999.0,41,-99.99,,,-99.99,,2013-08-15 04:22:00,
2013-08-14 21:52:00,72.0,49.0,29.78,WNW,295,1.0,-999.0,45,-99.99,,,-99.99,,2013-08-15 04:52:00,
2013-08-14 22:12:00,72.0,49.0,29.78,WNW,295,0.0,-999.0,45,-99.99,,,-99.99,,2013-08-15 05:12:00,
2013-08-14 22:22:00,71.0,50.0,29.78,WNW,295,0.0,-999.0,48,-99.99,,,-99.99,,2013-08-15 05:22:00,
2013-08-14 22:52:00,69.0,51.0,29.78,WNW,295,0.0,-999.0,53,-99.99,,,-99.99,,2013-08-15 05:52:00,
2013-08-14 23:11:00,68.0,52.0,29.79,WNW,295,0.0,-999.0,57,-99.99,,,-99.99,,2013-08-15 06:11:00,
2013-08-14 23:21:00,67.0,52.0,29.79,WNW,295,0.0,-999.0,58,-99.99,,,-99.99,,2013-08-15 06:21:00,
2013-08-14 23:42:00,67.0,50.0,29.79,WNW,295,0.0,-999.0,55,-99.99,,,-99.99,,2013-08-15 06:42:00,
2013-08-14 23:51:00,67.0,51.0,29.80,WNW,295,0.0,-999.0,57,-99.99,,,-99.99,,2013-08-15 06:51:00,